Time;durP1;ratioP1;P1;durP2;ratioP2;P2;SDS_P1;SDS_P2;PMS_P1;PMS_P2;Temp;Humidity;BMP_temperature;BMP_pressure;BME280_temperature;BME280_humidity;BME280_pressure;Samples;Min_cycle;Max_cycle;Signal;HPM_P1;HPM_P2
2022/06/05 00:02:37;;;;;;;5.22;3.58;;;;;;;;;;5105010;28;20559;-85
2022/06/05 00:05:08;;;;;;;6.53;3.85;;;;;;;;;;5103859;28;20028;-85
2022/06/05 00:07:46;;;;;;;5.57;3.58;;;;;;;;;;5104176;28;20047;-85
2022/06/05 00:10:28;;;;;;;8.23;3.40;;;;;;;;;;5101463;28;20032;-83
2022/06/05 00:13:14;;;;;;;7.97;3.70;;;;;;;;;;5101067;28;20046;-83
2022/06/05 00:15:40;;;;;;;8.95;3.70;;;;;;;;;;5100464;28;20511;-83
2022/06/05 00:18:06;;;;;;;6.85;3.63;;;;;;;;;;5101340;28;20063;-83
2022/06/05 00:20:31;;;;;;;6.20;3.60;;;;;;;;;;5098919;28;20031;-83
2022/06/05 00:22:58;;;;;;;5.55;3.92;;;;;;;;;;5099715;28;20393;-83
2022/06/05 00:25:31;;;;;;;4.57;3.50;;;;;;;;;;5099312;28;20373;-83
2022/06/05 00:28:05;;;;;;;4.40;3.50;;;;;;;;;;5100957;28;20403;-83
2022/06/05 00:30:44;;;;;;;5.70;3.80;;;;;;;;;;5100826;28;20127;-83
2022/06/05 00:33:23;;;;;;;4.95;3.53;;;;;;;;;;5100416;28;20309;-83
2022/06/05 00:35:59;;;;;;;5.07;3.50;;;;;;;;;;5098648;28;20035;-83
2022/06/05 00:38:50;;;;;;;7.65;3.65;;;;;;;;;;5100573;28;20027;-82
2022/06/05 00:41:41;;;;;;;6.80;3.72;;;;;;;;;;5089972;28;20072;-83
2022/06/05 00:44:13;;;;;;;7.10;3.75;;;;;;;;;;5097501;28;20036;-82
2022/06/05 00:46:41;;;;;;;6.72;3.60;;;;;;;;;;5096025;28;20116;-82
2022/06/05 00:49:07;;;;;;;7.20;3.95;;;;;;;;;;5097067;28;20111;-82
2022/06/05 00:51:33;;;;;;;5.10;3.70;;;;;;;;;;5095975;28;20066;-83
2022/06/05 00:53:59;;;;;;;7.25;4.43;;;;;;;;;;5096412;28;20109;-81
2022/06/05 00:56:25;;;;;;;8.88;4.40;;;;;;;;;;5095414;28;20505;-83
2022/06/05 00:58:52;;;;;;;7.90;3.80;;;;;;;;;;5095871;28;20113;-82
2022/06/05 01:01:17;;;;;;;5.53;3.70;;;;;;;;;;5095823;28;20035;-83
2022/06/05 01:03:43;;;;;;;8.25;4.03;;;;;;;;;;5096996;28;20044;-82
2022/06/05 01:06:09;;;;;;;5.13;3.80;;;;;;;;;;5096492;28;20044;-82
2022/06/05 01:08:34;;;;;;;9.07;4.00;;;;;;;;;;5095789;28;20115;-82
2022/06/05 01:11:08;;;;;;;6.40;3.50;;;;;;;;;;5096261;28;20028;-83
2022/06/05 01:13:39;;;;;;;5.80;3.58;;;;;;;;;;5097107;28;20549;-82
2022/06/05 01:16:20;;;;;;;5.38;4.00;;;;;;;;;;5096209;28;20081;-83
2022/06/05 01:19:06;;;;;;;5.65;3.97;;;;;;;;;;5095639;28;20032;-82
2022/06/05 01:21:51;;;;;;;4.65;3.60;;;;;;;;;;5096716;28;20106;-82
2022/06/05 01:24:32;;;;;;;5.43;3.63;;;;;;;;;;5095079;28;20051;-82
2022/06/05 01:27:05;;;;;;;8.43;3.83;;;;;;;;;;5095545;28;20075;-82
2022/06/05 01:29:38;;;;;;;10.27;3.83;;;;;;;;;;5095298;28;20504;-82
2022/06/05 01:32:09;;;;;;;5.95;3.58;;;;;;;;;;5096653;28;20063;-83
2022/06/05 01:34:47;;;;;;;6.07;3.88;;;;;;;;;;5094858;28;20040;-82
2022/06/05 01:37:37;;;;;;;6.78;3.60;;;;;;;;;;5095848;28;20028;-82
2022/06/05 01:40:08;;;;;;;5.78;3.50;;;;;;;;;;5096504;28;20055;-82
2022/06/05 01:42:40;;;;;;;10.25;4.00;;;;;;;;;;5096543;28;20055;-83
2022/06/05 01:45:11;;;;;;;7.75;4.25;;;;;;;;;;5095236;28;20407;-82
2022/06/05 01:47:40;;;;;;;6.28;4.50;;;;;;;;;;5096223;28;20056;-83
2022/06/05 01:50:21;;;;;;;4.57;3.90;;;;;;;;;;5095858;28;20051;-83
2022/06/05 01:52:52;;;;;;;5.88;4.05;;;;;;;;;;5095070;28;20040;-82
2022/06/05 01:55:36;;;;;;;9.13;3.88;;;;;;;;;;5095174;28;20031;-82
2022/06/05 01:58:04;;;;;;;5.88;3.97;;;;;;;;;;5095014;28;20093;-82
2022/06/05 02:00:31;;;;;;;5.40;4.03;;;;;;;;;;5096429;28;20107;-82
2022/06/05 02:03:10;;;;;;;6.25;4.03;;;;;;;;;;5095856;28;20077;-82
2022/06/05 02:05:45;;;;;;;5.70;3.88;;;;;;;;;;5095373;28;20480;-82
2022/06/05 02:08:16;;;;;;;5.90;4.00;;;;;;;;;;5095275;28;20699;-82
2022/06/05 02:10:46;;;;;;;7.15;3.65;;;;;;;;;;5095475;28;20036;-82
2022/06/05 02:13:12;;;;;;;5.40;3.80;;;;;;;;;;5095819;28;20036;-82
2022/06/05 02:15:38;;;;;;;4.80;3.63;;;;;;;;;;5095209;28;20110;-84
2022/06/05 02:18:05;;;;;;;5.65;3.78;;;;;;;;;;5095292;28;20036;-82
2022/06/05 02:20:31;;;;;;;7.53;4.00;;;;;;;;;;5094433;28;20032;-82
2022/06/05 02:22:57;;;;;;;5.10;3.80;;;;;;;;;;5095512;28;20527;-82
2022/06/05 02:25:25;;;;;;;4.72;3.60;;;;;;;;;;5094962;28;20055;-82
2022/06/05 02:28:01;;;;;;;6.03;3.70;;;;;;;;;;5095189;28;20032;-82
2022/06/05 02:31:05;;;;;;;7.00;3.75;;;;;;;;;;5095715;28;20059;-82
2022/06/05 02:33:45;;;;;;;6.20;3.90;;;;;;;;;;5094136;28;20035;-82
2022/06/05 02:36:32;;;;;;;7.68;3.88;;;;;;;;;;5094378;28;20054;-82
2022/06/05 02:39:19;;;;;;;9.15;3.95;;;;;;;;;;5093576;28;20035;-82
2022/06/05 02:42:26;;;;;;;4.50;3.83;;;;;;;;;;5095078;28;20028;-82
2022/06/05 02:45:13;;;;;;;4.43;3.40;;;;;;;;;;5094368;28;20043;-82
2022/06/05 02:47:55;;;;;;;6.00;3.90;;;;;;;;;;5093465;28;20032;-82
2022/06/05 02:50:31;;;;;;;9.15;4.20;;;;;;;;;;5095317;28;20082;-82
2022/06/05 02:53:05;;;;;;;6.90;4.20;;;;;;;;;;5076622;28;20035;-82
2022/06/05 02:55:30;;;;;;;;;;;;;;;;;;5093427;28;20061;-82
2022/06/05 02:57:57;;;;;;;6.43;4.20;;;;;;;;;;5095346;28;19919;-82
2022/06/05 03:00:25;;;;;;;5.82;4.25;;;;;;;;;;5094894;28;20039;-82
2022/06/05 03:05:36;;;;;;;8.27;4.13;;;;;;;;;;5093838;28;20412;-82
2022/06/05 03:08:02;;;;;;;5.70;3.80;;;;;;;;;;5093702;28;20046;-82
2022/06/05 03:10:27;;;;;;;6.13;4.10;;;;;;;;;;5094832;28;20493;-82
2022/06/05 03:12:53;;;;;;;4.30;3.60;;;;;;;;;;5094221;28;20043;-82
2022/06/05 03:15:19;;;;;;;5.47;3.70;;;;;;;;;;5093903;28;20089;-82
2022/06/05 03:17:45;;;;;;;8.70;3.90;;;;;;;;;;5094337;28;20178;-82
2022/06/05 03:20:14;;;;;;;5.80;3.90;;;;;;;;;;5093227;28;20046;-82
2022/06/05 03:22:40;;;;;;;5.57;3.97;;;;;;;;;;5093594;28;20381;-82
2022/06/05 03:25:07;;;;;;;7.75;3.65;;;;;;;;;;5093986;28;20063;-81
2022/06/05 03:27:32;;;;;;;5.80;3.90;;;;;;;;;;5091725;28;20131;-82
2022/06/05 03:29:59;;;;;;;5.35;4.20;;;;;;;;;;5091886;28;20115;-81
2022/06/05 03:32:26;;;;;;;4.57;3.60;;;;;;;;;;5091782;28;20438;-81
2022/06/05 03:34:51;;;;;;;5.75;3.80;;;;;;;;;;5091168;28;20036;-81
2022/06/05 03:37:17;;;;;;;6.90;3.67;;;;;;;;;;5090676;28;20080;-81
2022/06/05 03:39:42;;;;;;;5.47;3.42;;;;;;;;;;5090851;28;20096;-81
2022/06/05 03:42:08;;;;;;;5.32;3.40;;;;;;;;;;5091964;28;20105;-81
2022/06/05 03:44:38;;;;;;;8.95;3.97;;;;;;;;;;5091301;28;20036;-81
2022/06/05 03:47:05;;;;;;;6.30;3.85;;;;;;;;;;5091797;28;20115;-82
2022/06/05 03:49:31;;;;;;;7.28;3.67;;;;;;;;;;5090236;28;20047;-81
2022/06/05 03:51:57;;;;;;;7.07;3.50;;;;;;;;;;5091810;28;20094;-81
2022/06/05 03:54:22;;;;;;;5.43;3.35;;;;;;;;;;5093010;28;20036;-82
2022/06/05 03:56:48;;;;;;;8.98;3.50;;;;;;;;;;5092671;28;20032;-82
2022/06/05 03:59:13;;;;;;;5.15;3.15;;;;;;;;;;5094157;28;20046;-82
2022/06/05 04:01:38;;;;;;;5.40;3.63;;;;;;;;;;5094111;28;20040;-82
2022/06/05 04:04:04;;;;;;;6.38;3.58;;;;;;;;;;5093453;28;20082;-82
2022/06/05 04:06:30;;;;;;;6.07;3.50;;;;;;;;;;5092687;28;20485;-82
2022/06/05 04:08:57;;;;;;;4.07;3.45;;;;;;;;;;5093675;28;20104;-82
2022/06/05 04:11:24;;;;;;;6.97;3.60;;;;;;;;;;5094100;28;20027;-82
2022/06/05 04:13:50;;;;;;;5.45;3.60;;;;;;;;;;5093851;28;20665;-82
2022/06/05 04:16:20;;;;;;;5.50;3.45;;;;;;;;;;5093039;28;20036;-82
2022/06/05 04:18:46;;;;;;;5.15;3.63;;;;;;;;;;5090749;28;20112;-81
2022/06/05 04:21:15;;;;;;;6.88;3.50;;;;;;;;;;5097770;28;20558;-82
2022/06/05 04:23:42;;;;;;;5.75;3.22;;;;;;;;;;5097723;28;20045;-82
2022/06/05 04:26:09;;;;;;;6.28;3.38;;;;;;;;;;5096528;28;20124;-82
2022/06/05 04:28:35;;;;;;;4.25;3.53;;;;;;;;;;5097638;28;20118;-82
2022/06/05 04:31:01;;;;;;;5.55;3.78;;;;;;;;;;5096354;28;20044;-82
2022/06/05 04:33:27;;;;;;;5.90;3.35;;;;;;;;;;5096324;28;20031;-82
2022/06/05 04:35:52;;;;;;;9.18;3.85;;;;;;;;;;5096913;28;20060;-82
2022/06/05 04:38:18;;;;;;;8.27;3.20;;;;;;;;;;5096678;28;20476;-82
2022/06/05 04:40:44;;;;;;;6.47;3.45;;;;;;;;;;5097090;28;20040;-82
2022/06/05 04:43:09;;;;;;;7.68;3.60;;;;;;;;;;5095596;28;20492;-82
2022/06/05 04:45:35;;;;;;;6.07;3.63;;;;;;;;;;5096604;28;20035;-82
2022/06/05 04:48:01;;;;;;;5.55;3.60;;;;;;;;;;5096335;28;20095;-81
2022/06/05 04:50:27;;;;;;;5.75;3.58;;;;;;;;;;5097047;28;20086;-82
2022/06/05 04:52:52;;;;;;;6.75;3.60;;;;;;;;;;5095949;28;20032;-81
2022/06/05 04:55:18;;;;;;;9.20;3.50;;;;;;;;;;5096771;28;20119;-81
2022/06/05 04:57:44;;;;;;;6.10;3.50;;;;;;;;;;5102707;28;20082;-82
2022/06/05 05:00:11;;;;;;;5.68;3.25;;;;;;;;;;5095547;28;20407;-82
2022/06/05 05:02:38;;;;;;;5.72;3.40;;;;;;;;;;5096798;28;20126;-82
2022/06/05 05:05:04;;;;;;;5.38;3.20;;;;;;;;;;5096179;28;20035;-82
2022/06/05 05:07:30;;;;;;;4.97;3.58;;;;;;;;;;5096209;28;20031;-81
2022/06/05 05:09:56;;;;;;;7.22;3.40;;;;;;;;;;5094219;28;20032;-81
2022/06/05 05:12:21;;;;;;;6.93;3.35;;;;;;;;;;5094171;28;20052;-81
2022/06/05 05:14:47;;;;;;;5.85;3.20;;;;;;;;;;5093492;28;20038;-81
2022/06/05 05:17:12;;;;;;;4.38;3.20;;;;;;;;;;5093194;28;20028;-81
2022/06/05 05:19:38;;;;;;;5.63;2.97;;;;;;;;;;5092808;28;20036;-82
2022/06/05 05:22:03;;;;;;;4.80;2.90;;;;;;;;;;5094190;28;20032;-82
2022/06/05 05:24:29;;;;;;;5.43;3.38;;;;;;;;;;5093356;28;20484;-81
2022/06/05 05:26:55;;;;;;;5.97;2.95;;;;;;;;;;5094048;28;20059;-82
2022/06/05 05:29:21;;;;;;;4.43;3.22;;;;;;;;;;5093829;28;20040;-82
2022/06/05 05:31:50;;;;;;;5.75;3.20;;;;;;;;;;5093906;28;20040;-80
2022/06/05 05:34:16;;;;;;;5.93;3.08;;;;;;;;;;5092547;28;20210;-82
2022/06/05 05:36:42;;;;;;;6.25;3.30;;;;;;;;;;5093920;28;20467;-82
2022/06/05 05:42:08;;;;;;;5.97;3.03;;;;;;;;;;5094441;28;20047;-81
2022/06/05 05:44:40;;;;;;;8.88;3.20;;;;;;;;;;5092199;28;20396;-81
2022/06/05 05:47:12;;;;;;;7.43;3.45;;;;;;;;;;5094050;28;20480;-82
2022/06/05 05:49:38;;;;;;;7.85;3.20;;;;;;;;;;5092351;28;20446;-81
2022/06/05 05:52:05;;;;;;;4.07;2.90;;;;;;;;;;5093524;28;20024;-82
2022/06/05 05:54:31;;;;;;;5.18;2.97;;;;;;;;;;5092989;28;20044;-82
2022/06/05 05:56:57;;;;;;;6.35;3.03;;;;;;;;;;5093843;28;20077;-81
2022/06/05 05:59:22;;;;;;;5.03;2.90;;;;;;;;;;5092404;28;20027;-81
2022/06/05 06:01:51;;;;;;;4.85;2.80;;;;;;;;;;5093423;28;20036;-81
2022/06/05 06:04:16;;;;;;;4.50;2.88;;;;;;;;;;5092127;28;20451;-81
2022/06/05 06:06:43;;;;;;;4.30;2.70;;;;;;;;;;5093788;28;20506;-82
2022/06/05 06:09:09;;;;;;;4.25;2.70;;;;;;;;;;5093483;28;20630;-83
2022/06/05 06:11:35;;;;;;;5.63;2.85;;;;;;;;;;5094189;28;20063;-85
2022/06/05 06:14:00;;;;;;;4.50;2.90;;;;;;;;;;5093358;28;20060;-83
2022/06/05 06:16:29;;;;;;;5.32;2.85;;;;;;;;;;5093497;28;20127;-84
2022/06/05 06:18:55;;;;;;;5.47;3.05;;;;;;;;;;5091920;28;20063;-83
2022/06/05 06:21:21;;;;;;;4.85;2.95;;;;;;;;;;5093365;28;20032;-84
2022/06/05 06:23:47;;;;;;;5.63;2.70;;;;;;;;;;5088966;28;20080;-83
2022/06/05 06:26:13;;;;;;;4.68;2.90;;;;;;;;;;5092612;28;20030;-83
2022/06/05 06:28:38;;;;;;;5.43;2.83;;;;;;;;;;5093195;28;20134;-85
2022/06/05 06:31:09;;;;;;;6.10;2.88;;;;;;;;;;5093434;28;20488;-83
2022/06/05 06:33:36;;;;;;;6.47;2.97;;;;;;;;;;5093170;28;20040;-83
2022/06/05 06:36:04;;;;;;;5.45;2.70;;;;;;;;;;5091375;28;20053;-84
2022/06/05 06:38:30;;;;;;;8.20;3.33;;;;;;;;;;5092195;28;20130;-83
2022/06/05 06:41:00;;;;;;;8.73;2.80;;;;;;;;;;5093710;28;20071;-83
2022/06/05 06:43:26;;;;;;;5.13;2.70;;;;;;;;;;5093097;28;20081;-83
2022/06/05 06:45:51;;;;;;;4.97;2.80;;;;;;;;;;5093335;28;20084;-83
2022/06/05 06:48:17;;;;;;;5.30;2.80;;;;;;;;;;5093806;28;20035;-83
2022/06/05 06:50:42;;;;;;;7.00;2.75;;;;;;;;;;5093776;28;20048;-82
2022/06/05 06:53:08;;;;;;;7.32;3.00;;;;;;;;;;5093589;28;20039;-83
2022/06/05 06:55:36;;;;;;;8.82;3.42;;;;;;;;;;5091016;28;20024;-84
2022/06/05 06:58:01;;;;;;;11.00;4.32;;;;;;;;;;5092938;28;20558;-82
2022/06/05 07:00:28;;;;;;;7.32;3.10;;;;;;;;;;5092594;28;20341;-84
2022/06/05 07:02:53;;;;;;;7.82;3.40;;;;;;;;;;5093044;28;20114;-83
2022/06/05 07:05:19;;;;;;;7.65;3.65;;;;;;;;;;5091225;28;20071;-82
2022/06/05 07:07:45;;;;;;;7.70;3.33;;;;;;;;;;5092520;28;20048;-83
2022/06/05 07:10:10;;;;;;;11.65;4.45;;;;;;;;;;5092647;28;20032;-83
2022/06/05 07:12:36;;;;;;;7.78;3.03;;;;;;;;;;5092747;28;20070;-83
2022/06/05 07:15:04;;;;;;;5.20;2.67;;;;;;;;;;5092452;28;20027;-83
2022/06/05 07:17:30;;;;;;;11.30;3.92;;;;;;;;;;5091662;28;20067;-83
2022/06/05 07:19:56;;;;;;;7.57;3.30;;;;;;;;;;5091653;28;20028;-83
2022/06/05 07:22:22;;;;;;;20.10;6.05;;;;;;;;;;5092557;28;20506;-84
2022/06/05 07:24:48;;;;;;;6.45;3.17;;;;;;;;;;5092004;28;20032;-83
2022/06/05 07:27:13;;;;;;;11.90;4.28;;;;;;;;;;5092970;28;20031;-83
2022/06/05 07:29:39;;;;;;;10.90;4.43;;;;;;;;;;5092685;28;20044;-83
2022/06/05 07:32:05;;;;;;;7.40;3.10;;;;;;;;;;5093074;28;20038;-83
2022/06/05 07:34:30;;;;;;;10.15;3.75;;;;;;;;;;5092658;28;20043;-83
2022/06/05 07:36:58;;;;;;;5.60;3.00;;;;;;;;;;5093206;28;20114;-83
2022/06/05 07:39:24;;;;;;;5.63;2.80;;;;;;;;;;5092905;28;20032;-84
2022/06/05 07:41:49;;;;;;;5.35;3.10;;;;;;;;;;5091384;28;20043;-86
2022/06/05 07:44:16;;;;;;;5.93;2.60;;;;;;;;;;5092163;28;20028;-87
2022/06/05 07:46:41;;;;;;;5.20;2.97;;;;;;;;;;5092269;28;20039;-86
2022/06/05 07:49:07;;;;;;;6.38;2.90;;;;;;;;;;5092561;28;20040;-84
2022/06/05 07:54:27;;;;;;;6.38;3.10;;;;;;;;;;5093532;28;20039;-82
2022/06/05 07:57:19;;;;;;;9.63;3.25;;;;;;;;;;5078525;28;20135;-84
2022/06/05 07:59:47;;;;;;;7.60;2.90;;;;;;;;;;5093358;28;20071;-83
2022/06/05 08:02:25;;;;;;;5.43;2.92;;;;;;;;;;5095058;28;20067;-83
2022/06/05 08:04:52;;;;;;;6.88;3.10;;;;;;;;;;5095896;28;20041;-83
2022/06/05 08:07:20;;;;;;;9.75;3.20;;;;;;;;;;5096481;28;20480;-83
2022/06/05 08:09:46;;;;;;;7.90;3.00;;;;;;;;;;5089863;28;20107;-84
2022/06/05 08:12:14;;;;;;;9.93;3.40;;;;;;;;;;5077561;28;20032;-83
2022/06/05 08:14:42;;;;;;;8.40;2.90;;;;;;;;;;5076685;28;20119;-85
2022/06/05 08:17:14;;;;;;;5.88;2.70;;;;;;;;;;5093725;28;20036;-85
2022/06/05 08:19:41;;;;;;;6.32;3.22;;;;;;;;;;5094764;28;20036;-81
2022/06/05 08:22:08;;;;;;;6.00;3.03;;;;;;;;;;5096030;28;20027;-82
2022/06/05 08:24:34;;;;;;;5.18;2.80;;;;;;;;;;5096117;28;20032;-83
2022/06/05 08:27:00;;;;;;;5.60;2.70;;;;;;;;;;5095734;28;20114;-83
2022/06/05 08:29:25;;;;;;;6.38;2.70;;;;;;;;;;5095997;28;20093;-83
2022/06/05 08:31:53;;;;;;;4.22;2.78;;;;;;;;;;5095969;28;20036;-82
2022/06/05 08:34:19;;;;;;;6.13;2.80;;;;;;;;;;5095657;28;20101;-82
2022/06/05 08:36:45;;;;;;;7.38;3.42;;;;;;;;;;5095765;28;20016;-82
2022/06/05 08:42:25;;;;;;;5.68;3.17;;;;;;;;;;5095981;28;20468;-84
2022/06/05 08:44:57;;;;;;;6.43;3.00;;;;;;;;;;5007345;28;20052;-85
2022/06/05 08:47:33;;;;;;;5.63;3.08;;;;;;;;;;5095638;28;20024;-87
2022/06/05 08:50:08;;;;;;;5.32;2.75;;;;;;;;;;5100244;28;20482;-86
2022/06/05 08:53:23;;;;;;;7.40;2.95;;;;;;;;;;5099699;28;20373;-85
2022/06/05 08:55:52;;;;;;;8.45;3.22;;;;;;;;;;5083278;28;20054;-84
2022/06/05 08:58:49;;;;;;;7.25;3.05;;;;;;;;;;5101724;28;20035;-85
2022/06/05 09:01:47;;;;;;;6.00;3.70;;;;;;;;;;5100616;28;20042;-86
2022/06/05 09:04:34;;;;;;;8.73;3.28;;;;;;;;;;5073808;28;20055;-83
2022/06/05 09:07:09;;;;;;;6.65;3.17;;;;;;;;;;5099572;28;20119;-87
2022/06/05 09:09:47;;;;;;;5.88;3.60;;;;;;;;;;5099845;28;20035;-84
2022/06/05 09:12:27;;;;;;;5.25;3.10;;;;;;;;;;5100296;28;20097;-86
2022/06/05 09:15:00;;;;;;;5.65;2.97;;;;;;;;;;5098403;28;20036;-86
2022/06/05 09:17:27;;;;;;;6.30;3.20;;;;;;;;;;5099296;28;20117;-87
2022/06/05 09:19:55;;;;;;;6.57;3.28;;;;;;;;;;5098423;28;20032;-86
2022/06/05 09:22:32;;;;;;;8.52;3.30;;;;;;;;;;5099549;28;20036;-86
2022/06/05 09:25:19;;;;;;;8.43;3.17;;;;;;;;;;5099499;28;20549;-88
2022/06/05 09:28:15;;;;;;;8.80;3.30;;;;;;;;;;5100552;28;20039;-86
2022/06/05 09:30:58;;;;;;;6.82;3.17;;;;;;;;;;5100551;28;20058;-85
2022/06/05 09:33:30;;;;;;;6.65;3.10;;;;;;;;;;5099968;28;20051;-85
2022/06/05 09:36:04;;;;;;;7.57;3.00;;;;;;;;;;5099292;28;20385;-85
2022/06/05 09:38:47;;;;;;;6.90;3.30;;;;;;;;;;5099641;28;20043;-86
2022/06/05 09:41:21;;;;;;;5.15;3.10;;;;;;;;;;5098692;28;20040;-86
2022/06/05 09:43:58;;;;;;;;;;;;;;;;;;5098724;28;20035;-86
2022/06/05 09:47:01;;;;;;;9.77;3.30;;;;;;;;;;5097854;28;20011;-85
2022/06/05 09:49:38;;;;;;;7.63;3.13;;;;;;;;;;5099299;28;20096;-87
2022/06/05 09:52:13;;;;;;;8.02;3.47;;;;;;;;;;5097796;28;20044;-87
2022/06/05 09:54:48;;;;;;;10.55;3.25;;;;;;;;;;5098553;28;20389;-85
2022/06/05 10:00:32;;;;;;;6.35;3.10;;;;;;;;;;5098532;28;20048;-85
2022/06/05 10:03:05;;;;;;;6.15;3.33;;;;;;;;;;5097896;28;20421;-84
2022/06/05 10:05:34;;;;;;;6.70;3.53;;;;;;;;;;5080975;28;20069;-86
2022/06/05 10:08:23;;;;;;;6.35;3.40;;;;;;;;;;5097409;28;20054;-86
2022/06/05 10:10:55;;;;;;;8.38;4.50;;;;;;;;;;5099166;28;20097;-87
2022/06/05 10:13:23;;;;;;;6.20;3.53;;;;;;;;;;5099517;28;20170;-86
2022/06/05 10:16:10;;;;;;;9.63;3.60;;;;;;;;;;5080302;28;20028;-85
2022/06/05 10:18:44;;;;;;;9.45;3.70;;;;;;;;;;5098017;28;20035;-87
2022/06/05 10:21:11;;;;;;;7.15;3.55;;;;;;;;;;5099411;28;20415;-86
2022/06/05 10:23:46;;;;;;;9.32;3.05;;;;;;;;;;5098771;28;20057;-87
2022/06/05 10:26:28;;;;;;;9.07;3.40;;;;;;;;;;5098645;28;20126;-86
2022/06/05 10:29:07;;;;;;;9.90;3.10;;;;;;;;;;5098322;28;20123;-85
2022/06/05 10:31:34;;;;;;;7.10;3.22;;;;;;;;;;5096026;28;20204;-85
2022/06/05 10:34:05;;;;;;;8.57;3.03;;;;;;;;;;5105940;28;20028;-86
2022/06/05 10:37:19;;;;;;;7.13;3.20;;;;;;;;;;5099116;28;20032;-88
2022/06/05 10:39:47;;;;;;;4.57;3.05;;;;;;;;;;5100261;28;20032;-85
2022/06/05 10:42:25;;;;;;;9.40;3.45;;;;;;;;;;5099357;28;20074;-86
2022/06/05 10:45:04;;;;;;;5.78;3.60;;;;;;;;;;5097550;28;20058;-86
2022/06/05 10:47:48;;;;;;;8.35;3.40;;;;;;;;;;5098268;28;20129;-88
2022/06/05 10:50:23;;;;;;;6.25;3.35;;;;;;;;;;5080724;28;20036;-86
2022/06/05 10:53:18;;;;;;;5.30;3.20;;;;;;;;;;5096972;28;20507;-87
2022/06/05 10:56:02;;;;;;;5.78;3.30;;;;;;;;;;5095979;28;20142;-85
2022/06/05 10:58:37;;;;;;;6.97;3.90;;;;;;;;;;5097817;28;20040;-87
2022/06/05 11:01:05;;;;;;;7.93;3.60;;;;;;;;;;5097508;28;20063;-87
2022/06/05 11:03:52;;;;;;;5.63;3.33;;;;;;;;;;5098595;28;20447;-86
2022/06/05 11:06:35;;;;;;;5.25;3.50;;;;;;;;;;5098215;28;20456;-86
2022/06/05 11:09:28;;;;;;;6.93;3.60;;;;;;;;;;5097949;28;20186;-86
2022/06/05 11:15:01;;;;;;;5.75;3.20;;;;;;;;;;5098216;28;20226;-85
2022/06/05 11:17:30;;;;;;;5.50;3.50;;;;;;;;;;5098258;28;20444;-86
2022/06/05 11:20:10;;;;;;;6.13;3.60;;;;;;;;;;5097123;28;20068;-85
2022/06/05 11:22:39;;;;;;;7.18;3.85;;;;;;;;;;5097865;28;20450;-85
2022/06/05 11:25:11;;;;;;;8.35;4.05;;;;;;;;;;5095725;28;20101;-86
2022/06/05 11:27:52;;;;;;;9.23;4.90;;;;;;;;;;5096979;28;20036;-86
2022/06/05 11:30:31;;;;;;;6.63;4.88;;;;;;;;;;5096025;28;20039;-86
2022/06/05 11:33:09;;;;;;;9.05;5.30;;;;;;;;;;5097916;28;20046;-85
2022/06/05 11:35:39;;;;;;;7.10;5.00;;;;;;;;;;5096604;28;20057;-87
2022/06/05 11:38:38;;;;;;;6.30;4.70;;;;;;;;;;5097479;28;20039;-86
2022/06/05 11:41:20;;;;;;;10.20;4.30;;;;;;;;;;5097923;28;20036;-87
2022/06/05 11:43:51;;;;;;;8.00;5.00;;;;;;;;;;5097618;28;20071;-86
2022/06/05 11:46:28;;;;;;;5.50;4.20;;;;;;;;;;5097468;28;20120;-87
2022/06/05 11:49:16;;;;;;;8.05;4.38;;;;;;;;;;5096313;28;20082;-85
2022/06/05 11:51:57;;;;;;;5.60;3.95;;;;;;;;;;5059093;28;20138;-86
2022/06/05 11:54:28;;;;;;;6.78;4.50;;;;;;;;;;5096953;28;20058;-88
2022/06/05 11:57:10;;;;;;;6.65;4.47;;;;;;;;;;5096840;28;20396;-86
2022/06/05 11:59:44;;;;;;;8.60;4.75;;;;;;;;;;5097550;28;20024;-86
2022/06/05 12:02:34;;;;;;;9.15;4.40;;;;;;;;;;5097842;28;20381;-86
2022/06/05 12:05:17;;;;;;;7.80;4.72;;;;;;;;;;5096024;28;20071;-86
2022/06/05 12:07:46;;;;;;;5.73;4.07;;;;;;;;;;5097483;28;20040;-87
2022/06/05 12:10:33;;;;;;;6.70;3.90;;;;;;;;;;5094647;28;20038;-86
2022/06/05 12:13:09;;;;;;;5.93;4.25;;;;;;;;;;5092745;28;20046;-85
2022/06/05 12:15:41;;;;;;;6.35;4.55;;;;;;;;;;5093486;28;20496;-86
2022/06/05 12:18:13;;;;;;;6.53;4.00;;;;;;;;;;5094374;28;20036;-86
2022/06/05 12:21:03;;;;;;;7.25;4.22;;;;;;;;;;5093700;28;20481;-85
2022/06/05 12:23:33;;;;;;;6.35;4.18;;;;;;;;;;5095815;28;20060;-85
2022/06/05 12:26:26;;;;;;;6.50;4.13;;;;;;;;;;5094487;28;20462;-85
2022/06/05 12:29:01;;;;;;;8.60;3.92;;;;;;;;;;5095037;28;20107;-86
2022/06/05 12:31:30;;;;;;;7.13;4.35;;;;;;;;;;5095289;28;20058;-85
2022/06/05 12:33:57;;;;;;;10.75;4.22;;;;;;;;;;5093885;28;20415;-84
2022/06/05 12:36:29;;;;;;;10.82;4.35;;;;;;;;;;5094574;28;20032;-86
2022/06/05 12:39:02;;;;;;;7.38;4.03;;;;;;;;;;5094728;28;20096;-85
2022/06/05 12:41:46;;;;;;;;;;;;;;;;;;5095983;28;20063;-83
2022/06/05 12:44:41;;;;;;;7.55;4.30;;;;;;;;;;5097699;28;19958;-85
2022/06/05 12:47:25;;;;;;;7.47;4.40;;;;;;;;;;5096552;28;20052;-86
2022/06/05 12:49:53;;;;;;;5.88;4.05;;;;;;;;;;5098401;28;20450;-86
2022/06/05 12:52:28;;;;;;;8.57;4.50;;;;;;;;;;5097580;28;20108;-86
2022/06/05 12:55:11;;;;;;;7.10;4.50;;;;;;;;;;5096320;28;20071;-86
2022/06/05 12:57:52;;;;;;;8.00;4.95;;;;;;;;;;5097179;28;20032;-86
2022/06/05 13:00:38;;;;;;;8.32;5.00;;;;;;;;;;5096179;28;20504;-85
2022/06/05 13:03:45;;;;;;;7.28;5.07;;;;;;;;;;5098567;28;20506;-86
2022/06/05 13:06:38;;;;;;;6.63;5.00;;;;;;;;;;5068118;28;20058;-85
2022/06/05 13:09:19;;;;;;;5.87;4.73;;;;;;;;;;5098181;28;20039;-85
2022/06/05 13:11:56;;;;;;;7.70;5.10;;;;;;;;;;5096349;28;20169;-85
2022/06/05 13:14:46;;;;;;;8.35;5.10;;;;;;;;;;5095846;28;20105;-85
2022/06/05 13:17:24;;;;;;;7.55;4.90;;;;;;;;;;5098358;28;20403;-85
2022/06/05 13:19:59;;;;;;;6.40;4.63;;;;;;;;;;5095916;28;20446;-85
2022/06/05 13:23:01;;;;;;;7.43;4.78;;;;;;;;;;5098217;28;20097;-85
2022/06/05 13:25:49;;;;;;;11.43;5.05;;;;;;;;;;5078692;28;20446;-85
2022/06/05 13:28:20;;;;;;;7.38;4.65;;;;;;;;;;5097676;28;20318;-84
2022/06/05 13:31:13;;;;;;;6.55;4.60;;;;;;;;;;5099594;28;20115;-84
2022/06/05 13:34:13;;;;;;;7.22;5.00;;;;;;;;;;5096039;28;20032;-90
2022/06/05 13:37:01;;;;;;;8.88;4.65;;;;;;;;;;5088815;28;20044;-89
2022/06/05 13:39:40;;;;;;;8.05;4.88;;;;;;;;;;5093795;28;20385;-89
2022/06/05 13:42:16;;;;;;;6.55;5.53;;;;;;;;;;5093726;28;20503;-89
2022/06/05 13:44:51;;;;;;;6.47;5.28;;;;;;;;;;5093256;28;20035;-89
2022/06/05 13:47:49;;;;;;;8.23;5.07;;;;;;;;;;5094099;28;20032;-90
2022/06/05 13:50:40;;;;;;;7.22;5.43;;;;;;;;;;5093492;28;20052;-89
2022/06/05 13:53:16;;;;;;;7.10;5.30;;;;;;;;;;5092430;28;20040;-90
2022/06/05 13:56:04;;;;;;;9.45;5.38;;;;;;;;;;5092084;28;20557;-89
2022/06/05 13:59:10;;;;;;;7.85;5.85;;;;;;;;;;5093747;28;20028;-89
2022/06/05 14:01:40;;;;;;;8.32;5.70;;;;;;;;;;5094211;28;20040;-89
2022/06/05 14:04:15;;;;;;;11.45;5.80;;;;;;;;;;5094166;28;20156;-89
2022/06/05 14:06:45;;;;;;;9.60;5.68;;;;;;;;;;5092804;28;20032;-91
2022/06/05 14:09:30;;;;;;;8.18;5.50;;;;;;;;;;5093820;28;20043;-90
2022/06/05 14:11:56;;;;;;;10.88;5.50;;;;;;;;;;5094809;28;20484;-90
2022/06/05 14:14:36;;;;;;;6.88;5.25;;;;;;;;;;5093529;28;20059;-91
2022/06/05 14:17:04;;;;;;;8.20;5.45;;;;;;;;;;5093603;28;20404;-90
2022/06/05 14:19:36;;;;;;;8.13;5.15;;;;;;;;;;5093766;28;20020;-91
2022/06/05 14:22:10;;;;;;;6.32;5.18;;;;;;;;;;5094010;28;20051;-90
2022/06/05 14:24:42;;;;;;;9.15;5.47;;;;;;;;;;5093904;28;20039;-90
2022/06/05 14:27:13;;;;;;;8.30;5.30;;;;;;;;;;5094816;28;20066;-90
2022/06/05 14:29:46;;;;;;;7.68;5.60;;;;;;;;;;5093828;28;20040;-90
2022/06/05 14:32:29;;;;;;;8.68;5.63;;;;;;;;;;5094816;28;20036;-89
2022/06/05 14:35:17;;;;;;;8.65;5.43;;;;;;;;;;5092964;28;20407;-89
2022/06/05 14:37:45;;;;;;;6.95;5.53;;;;;;;;;;5091707;28;20050;-88
2022/06/05 14:40:19;;;;;;;12.60;5.63;;;;;;;;;;5092844;28;20059;-89
2022/06/05 14:42:58;;;;;;;7.35;5.60;;;;;;;;;;5092729;28;20035;-90
2022/06/05 14:45:38;;;;;;;7.43;5.40;;;;;;;;;;5092863;28;20047;-88
2022/06/05 14:48:10;;;;;;;8.25;5.57;;;;;;;;;;5092928;28;20500;-87
2022/06/05 14:50:46;;;;;;;8.82;5.60;;;;;;;;;;5091509;28;20038;-88
2022/06/05 14:53:27;;;;;;;9.55;5.63;;;;;;;;;;5092871;28;20119;-88
2022/06/05 14:58:53;;;;;;;11.35;5.38;;;;;;;;;;5093104;28;20553;-88
2022/06/05 15:01:30;;;;;;;9.00;5.43;;;;;;;;;;5093399;28;20039;-88
2022/06/05 15:03:56;;;;;;;10.00;5.57;;;;;;;;;;5092071;28;20024;-87
2022/06/05 15:06:26;;;;;;;6.95;5.13;;;;;;;;;;5090984;28;20069;-88
2022/06/05 15:09:25;;;;;;;10.45;6.20;;;;;;;;;;5092195;28;20039;-87
2022/06/05 15:12:19;;;;;;;8.07;5.45;;;;;;;;;;5066127;28;20044;-89
2022/06/05 15:15:09;;;;;;;6.28;5.28;;;;;;;;;;5073040;28;20082;-89
2022/06/05 15:17:42;;;;;;;9.48;5.40;;;;;;;;;;5092238;28;20040;-88
2022/06/05 15:20:24;;;;;;;6.70;5.50;;;;;;;;;;5091647;28;20400;-88
2022/06/05 15:23:22;;;;;;;8.43;5.63;;;;;;;;;;5092223;28;20281;-88
2022/06/05 15:25:59;;;;;;;9.70;5.40;;;;;;;;;;5090631;28;20436;-88
2022/06/05 15:28:59;;;;;;;8.32;6.00;;;;;;;;;;5092811;28;20032;-86
2022/06/05 15:31:37;;;;;;;9.40;5.82;;;;;;;;;;5080961;28;20048;-88
2022/06/05 15:34:05;;;;;;;8.93;2.10;;;;;;;;;;5091965;28;20073;-87
2022/06/05 15:36:55;;;;;;;5.68;1.30;;;;;;;;;;5094691;28;20047;-86
2022/06/05 15:39:31;;;;;;;4.68;0.90;;;;;;;;;;5093583;28;20036;-86
2022/06/05 15:42:17;;;;;;;4.50;1.30;;;;;;;;;;5094583;28;20605;-85
2022/06/05 15:45:03;;;;;;;4.63;1.70;;;;;;;;;;5097380;28;20043;-86